Time;durP1;ratioP1;P1;durP2;ratioP2;P2;SDS_P1;SDS_P2;PMS_P1;PMS_P2;Temp;Humidity;BMP_temperature;BMP_pressure;BME280_temperature;BME280_humidity;BME280_pressure;Samples;Min_cycle;Max_cycle;Signal;HPM_P1;HPM_P2
2022/06/21 00:02:17;;;;;;;2.45;1.10;;;19.30;63.80;;;18.51;66.80;95931.16;5006958;28;20132;-68
2022/06/21 00:04:43;;;;;;;2.58;1.13;;;19.30;63.80;;;18.49;66.63;95930.59;4992497;28;20034;-69
2022/06/21 00:07:17;;;;;;;1.70;0.90;;;19.30;63.60;;;18.40;66.82;95930.22;5010992;28;20091;-69
2022/06/21 00:09:43;;;;;;;2.30;1.20;;;19.10;63.80;;;18.37;67.06;95933.38;4991661;28;20038;-70
2022/06/21 00:12:12;;;;;;;1.98;0.98;;;19.10;64.30;;;18.33;67.28;95927.72;5024027;28;20566;-69
2022/06/21 00:14:39;;;;;;;1.95;1.13;;;19.10;64.50;;;18.26;66.18;95924.38;5025478;28;21626;-68
2022/06/21 00:17:04;;;;;;;3.05;1.05;;;19.00;63.20;;;18.22;65.56;95920.59;5027360;28;20084;-69
2022/06/21 00:19:30;;;;;;;1.90;0.75;;;19.00;62.80;;;18.19;65.11;95931.72;5022308;28;20649;-69
2022/06/21 00:21:56;;;;;;;1.98;0.70;;;18.90;62.10;;;18.16;65.53;95936.75;5005613;28;20128;-69
2022/06/21 00:24:21;;;;;;;1.73;0.90;;;18.90;61.80;;;18.09;64.75;95936.88;5019883;28;20045;-69
2022/06/21 00:26:47;;;;;;;1.45;0.73;;;18.80;61.40;;;18.03;64.14;95927.19;5027137;28;20041;-69
2022/06/21 00:29:13;;;;;;;3.00;1.00;;;18.80;61.60;;;17.98;64.40;95929.75;5021357;28;20064;-69
2022/06/21 00:31:48;;;;;;;3.30;0.88;;;18.70;62.00;;;17.96;64.32;95931.88;4995662;28;20041;-69
2022/06/21 00:34:19;;;;;;;2.55;1.00;;;18.70;61.60;;;17.93;64.33;95927.03;5037874;28;20029;-69
2022/06/21 00:36:45;;;;;;;1.83;0.80;;;18.70;61.10;;;17.92;64.29;95928.06;5008355;28;20044;-69
2022/06/21 00:39:13;;;;;;;1.50;0.70;;;18.70;61.10;;;17.89;64.55;95941.84;5005322;28;20059;-68
2022/06/21 00:41:52;;;;;;;1.42;0.60;;;18.70;61.70;;;17.83;64.91;95937.47;5027182;28;20456;-70
2022/06/21 00:44:40;;;;;;;2.58;1.00;;;18.60;62.00;;;17.77;64.50;95933.09;5036023;28;20044;-69
2022/06/21 00:47:17;;;;;;;1.17;1.02;;;18.50;61.70;;;17.67;65.20;95928.38;5023373;28;20452;-68
2022/06/21 00:50:03;;;;;;;2.13;1.00;;;18.50;62.00;;;17.59;64.46;95920.75;5024966;28;20029;-68
2022/06/21 00:52:41;;;;;;;1.83;0.80;;;18.30;61.80;;;17.45;64.72;95921.06;5024578;28;20042;-69
2022/06/21 00:55:30;;;;;;;1.70;0.85;;;18.10;62.60;;;17.38;64.92;95923.03;5006856;28;20041;-68
2022/06/21 00:57:56;;;;;;;1.50;0.93;;;18.10;62.70;;;17.33;64.86;95930.09;5024355;28;20033;-69
2022/06/21 01:00:33;;;;;;;2.75;0.98;;;18.10;62.90;;;17.29;65.78;95927.09;4988967;28;20048;-69
2022/06/21 01:03:04;;;;;;;2.30;1.20;;;18.10;63.20;;;17.25;66.16;95930.47;5020633;28;20465;-68
2022/06/21 01:05:31;;;;;;;1.33;0.65;;;18.00;63.50;;;17.18;65.44;95935.09;5020774;28;20049;-69
2022/06/21 01:07:57;;;;;;;2.35;0.88;;;18.00;63.80;;;17.13;65.49;95928.63;5007328;28;20029;-69
2022/06/21 01:10:23;;;;;;;1.20;0.80;;;17.90;63.70;;;17.06;66.48;95935.94;5021606;28;20109;-69
2022/06/21 01:12:55;;;;;;;1.95;0.98;;;17.80;64.30;;;17.01;66.73;95943.78;5022290;28;20033;-69
2022/06/21 01:15:30;;;;;;;5.03;1.23;;;17.80;64.40;;;16.98;66.90;95935.50;5006064;28;20041;-68
2022/06/21 01:18:01;;;;;;;3.53;1.00;;;17.80;64.30;;;16.92;67.39;95947.03;5007830;28;20100;-68
2022/06/21 01:20:33;;;;;;;2.83;1.00;;;17.70;64.30;;;16.86;67.21;95943.44;5004952;28;20030;-69
2022/06/21 01:23:14;;;;;;;1.98;0.90;;;17.60;64.80;;;16.80;68.43;95947.03;4995971;28;20409;-69
2022/06/21 01:26:17;;;;;;;1.38;0.80;;;17.60;65.60;;;16.74;68.80;95953.25;5034633;28;20032;-69
2022/06/21 01:28:43;;;;;;;3.67;0.98;;;17.40;65.40;;;16.69;68.03;95947.84;5052762;28;20025;-68
2022/06/21 01:31:09;;;;;;;3.33;1.00;;;17.50;66.00;;;16.65;68.47;95942.16;5008442;28;20034;-70
2022/06/21 01:33:40;;;;;;;2.33;1.25;;;17.50;66.20;;;16.61;68.80;95950.81;5023141;28;20026;-68
2022/06/21 01:36:17;;;;;;;2.08;0.90;;;17.30;65.80;;;16.52;68.32;95942.38;5006875;28;20489;-69
2022/06/21 01:38:59;;;;;;;2.03;1.00;;;17.30;65.80;;;16.47;68.52;95951.03;5007617;28;20155;-69
2022/06/21 01:41:35;;;;;;;2.13;0.98;;;17.30;66.20;;;16.41;69.92;95941.31;5010185;28;20042;-68
2022/06/21 01:44:03;;;;;;;4.25;1.17;;;17.30;66.60;;;16.40;69.26;95950.31;5044903;28;20042;-68
2022/06/21 01:46:31;;;;;;;3.88;1.00;;;17.20;66.60;;;16.37;69.13;95945.47;5011548;28;20037;-68
2022/06/21 01:49:02;;;;;;;2.58;0.95;;;17.10;66.30;;;16.35;68.42;95936.94;5024551;28;20183;-67
2022/06/21 01:51:34;;;;;;;3.50;0.73;;;17.20;66.20;;;16.35;69.27;95946.75;4991974;28;20675;-68
2022/06/21 01:54:01;;;;;;;2.05;0.90;;;17.10;66.20;;;16.29;68.91;95937.84;4996151;28;20058;-69
2022/06/21 01:56:30;;;;;;;1.92;1.05;;;17.10;66.50;;;16.25;69.53;95939.31;4992177;28;20057;-68
2022/06/21 01:59:03;;;;;;;2.35;0.90;;;17.10;66.70;;;16.21;69.38;95933.66;5041074;28;20030;-69
2022/06/21 02:01:43;;;;;;;2.25;0.90;;;17.00;66.90;;;16.20;69.71;95923.28;4991774;28;20120;-67
2022/06/21 02:04:09;;;;;;;3.35;0.80;;;17.00;67.00;;;16.14;69.58;95918.91;5009789;28;20033;-69
2022/06/21 02:06:38;;;;;;;2.67;1.25;;;16.90;67.00;;;16.12;69.64;95926.28;4991624;28;20045;-67
2022/06/21 02:09:06;;;;;;;2.33;1.00;;;16.90;66.80;;;16.05;69.52;95926.38;5023619;28;20036;-68
2022/06/21 02:11:45;;;;;;;1.88;0.80;;;16.80;67.00;;;16.04;70.56;95921.28;5024179;28;20053;-68
2022/06/21 02:14:28;;;;;;;2.45;0.90;;;16.80;67.00;;;15.96;70.16;95916.31;4993176;28;20033;-68
2022/06/21 02:16:55;;;;;;;1.60;1.00;;;16.70;67.30;;;15.90;70.09;95916.19;5024586;28;20390;-68
2022/06/21 02:19:42;;;;;;;3.15;0.90;;;16.60;67.30;;;15.89;70.25;95922.53;4991167;28;20029;-68
2022/06/21 02:22:15;;;;;;;1.63;0.77;;;16.60;67.00;;;15.84;70.80;95914.44;5012435;28;20477;-68
2022/06/21 02:24:41;;;;;;;3.40;1.25;;;16.60;67.20;;;15.80;70.52;95913.25;5050849;28;20438;-68
2022/06/21 02:27:06;;;;;;;2.40;0.90;;;16.70;67.30;;;15.80;70.08;95901.84;5011418;28;20036;-68
2022/06/21 02:29:32;;;;;;;4.38;0.80;;;16.60;67.00;;;15.81;70.62;95906.94;4992200;28;20072;-68
2022/06/21 02:31:59;;;;;;;4.38;1.00;;;16.70;66.80;;;15.79;69.93;95906.34;4999139;28;20041;-68
2022/06/21 02:34:33;;;;;;;3.53;1.20;;;16.70;66.70;;;15.78;70.89;95901.28;5041567;28;20850;-69
2022/06/21 02:36:59;;;;;;;2.88;1.13;;;16.60;67.00;;;15.75;69.66;95905.19;4996847;28;20100;-67
2022/06/21 02:39:27;;;;;;;4.30;1.13;;;16.60;67.00;;;15.74;70.88;95902.75;5043142;28;20049;-67
2022/06/21 02:42:28;;;;;;;1.80;1.05;;;16.60;67.00;;;15.70;72.02;95905.06;4996014;28;20064;-72
2022/06/21 02:45:07;;;;;;;3.67;1.17;;;16.60;67.40;;;15.66;71.16;95895.94;5005543;28;22378;-68
2022/06/21 02:47:40;;;;;;;2.97;0.93;;;16.60;67.40;;;15.70;71.65;95904.25;5021721;28;20034;-69
2022/06/21 02:50:27;;;;;;;1.42;0.80;;;16.60;67.60;;;15.71;70.92;95901.38;5005001;28;20037;-68
2022/06/21 02:52:53;;;;;;;3.13;0.88;;;16.60;67.70;;;15.65;70.93;95896.97;5006617;28;21753;-68
2022/06/21 02:55:58;;;;;;;4.68;0.80;;;16.60;67.90;;;15.69;72.49;95903.44;4997472;28;20112;-66
2022/06/21 02:58:36;;;;;;;2.55;1.10;;;16.60;67.80;;;15.70;72.37;95897.09;5028409;28;20033;-68
2022/06/21 03:01:05;;;;;;;2.03;1.17;;;16.60;67.90;;;15.70;71.70;95894.44;5029458;28;20532;-67
2022/06/21 03:03:31;;;;;;;4.50;1.17;;;16.60;68.20;;;15.71;72.13;95898.72;5026563;28;20037;-68
2022/06/21 03:06:00;;;;;;;2.28;0.75;;;16.70;68.20;;;15.71;71.06;95898.72;5026330;28;20040;-67
2022/06/21 03:08:27;;;;;;;2.70;1.20;;;16.60;67.90;;;15.72;71.60;95900.34;5042744;28;20759;-66
2022/06/21 03:10:53;;;;;;;1.60;0.77;;;16.70;68.20;;;15.69;71.22;95895.47;5011356;28;20080;-66
2022/06/21 03:13:25;;;;;;;4.20;1.00;;;16.70;67.80;;;15.73;71.48;95901.16;5009595;28;20504;-67
2022/06/21 03:15:56;;;;;;;1.45;1.00;;;16.70;67.80;;;15.76;72.55;95906.81;5041474;28;20056;-67
2022/06/21 03:18:31;;;;;;;3.97;1.30;;;16.80;67.90;;;15.78;72.56;95910.03;5026886;28;20528;-67
2022/06/21 03:20:56;;;;;;;1.50;0.90;;;16.70;68.00;;;15.81;71.94;95914.88;5012180;28;20394;-67
2022/06/21 03:23:23;;;;;;;2.20;1.20;;;16.80;67.30;;;15.82;72.44;95916.50;5043224;28;20037;-68
2022/06/21 03:26:00;;;;;;;2.55;1.10;;;16.90;67.80;;;15.87;71.91;95927.25;5015148;28;20099;-67
2022/06/21 03:28:33;;;;;;;3.63;1.08;;;17.00;67.70;;;15.89;72.07;95930.50;5025086;28;20037;-68
2022/06/21 03:31:09;;;;;;;2.55;1.10;;;17.00;67.30;;;15.92;72.32;95926.56;5060220;28;20049;-68
2022/06/21 03:33:37;;;;;;;1.73;0.80;;;17.00;67.00;;;15.94;72.11;95929.81;5013471;28;20105;-67
2022/06/21 03:36:07;;;;;;;1.45;0.80;;;17.10;67.20;;;15.97;71.44;95928.53;5026559;28;20029;-68
2022/06/21 03:38:33;;;;;;;2.78;1.00;;;17.10;67.30;;;15.97;72.29;95924.03;5027437;28;20036;-68
2022/06/21 03:43:48;;;;;;;3.70;1.10;;;17.10;66.90;;;16.00;71.40;95928.09;5042037;28;20434;-67
2022/06/21 03:46:22;;;;;;;4.30;0.98;;;17.10;67.10;;;16.01;72.07;95929.69;5025467;28;20128;-68
2022/06/21 03:49:22;;;;;;;2.28;1.00;;;17.10;66.80;;;16.05;72.72;95930.84;5001658;28;20038;-68
2022/06/21 03:51:48;;;;;;;1.73;0.98;;;17.10;66.90;;;16.03;71.08;95932.94;5022593;28;20035;-68
2022/06/21 03:54:46;;;;;;;3.47;1.08;;;17.10;67.00;;;16.03;71.78;95922.31;5041980;28;20065;-67
2022/06/21 03:57:23;;;;;;;1.60;0.88;;;17.10;67.20;;;15.98;72.50;95916.91;5025218;28;20033;-68
2022/06/21 04:00:00;;;;;;;7.50;1.67;;;17.10;67.60;;;16.02;71.84;95924.16;5011916;28;20381;-67
2022/06/21 04:02:31;;;;;;;2.17;1.00;;;17.10;67.40;;;16.01;71.76;95921.75;5042719;28;20300;-67
2022/06/21 04:05:16;;;;;;;3.63;1.27;;;17.10;67.50;;;16.00;71.43;95934.19;5041551;28;20585;-67
2022/06/21 04:07:58;;;;;;;5.32;1.23;;;17.10;66.90;;;15.98;72.50;95930.97;5028319;28;20120;-70
2022/06/21 04:10:47;;;;;;;3.40;1.17;;;17.10;66.90;;;16.00;72.24;95936.03;5058820;28;20029;-70
2022/06/21 04:13:24;;;;;;;1.95;1.02;;;17.10;66.70;;;15.99;71.79;95934.44;5054267;28;20061;-70
2022/06/21 04:16:31;;;;;;;4.85;1.30;;;17.10;66.80;;;16.03;72.81;95935.59;5006540;28;20041;-68
2022/06/21 04:19:25;;;;;;;3.50;1.15;;;17.20;66.80;;;16.07;71.90;95934.09;5007684;28;20108;-68
2022/06/21 04:21:57;;;;;;;1.65;0.85;;;17.30;66.60;;;16.09;70.91;95921.44;5047818;28;20567;-68
2022/06/21 04:24:32;;;;;;;2.08;0.93;;;17.30;65.60;;;16.12;71.43;95910.38;5025327;28;20041;-67
2022/06/21 04:27:06;;;;;;;2.60;0.90;;;17.30;65.50;;;16.19;71.06;95921.66;5012883;28;20030;-68
2022/06/21 04:29:38;;;;;;;1.77;0.90;;;17.40;65.00;;;16.24;69.89;95924.44;5042068;28;20040;-65
2022/06/21 04:32:08;;;;;;;2.70;0.98;;;17.50;64.70;;;16.27;69.45;95916.03;5043340;28;20045;-67
2022/06/21 04:34:46;;;;;;;1.70;0.88;;;17.60;64.20;;;16.30;69.92;95918.25;5032253;28;20056;-67
2022/06/21 04:37:56;;;;;;;2.55;1.20;;;17.60;64.30;;;16.35;69.01;95910.41;4996174;28;20029;-67
2022/06/21 04:40:24;;;;;;;2.03;1.05;;;17.60;63.90;;;16.30;69.15;95899.66;5006173;28;20128;-67
2022/06/21 04:43:04;;;;;;;1.20;0.93;;;17.50;63.00;;;16.35;68.23;95905.09;5012295;28;20037;-67
2022/06/21 04:45:54;;;;;;;2.95;1.20;;;17.60;62.60;;;16.32;68.05;95897.59;5028588;28;20069;-67
2022/06/21 04:48:51;;;;;;;2.92;1.10;;;17.60;62.40;;;16.37;66.99;95895.03;4993676;28;20057;-67
2022/06/21 04:51:56;;;;;;;2.80;1.00;;;17.60;61.40;;;16.39;65.81;95892.16;5004147;28;20029;-67
2022/06/21 04:54:30;;;;;;;2.22;1.00;;;17.70;60.30;;;16.42;65.72;95900.47;5015322;28;20029;-67
2022/06/21 04:57:20;;;;;;;3.10;1.10;;;17.70;60.00;;;16.46;64.69;95909.59;5028770;28;20053;-67
2022/06/21 04:59:55;;;;;;;2.33;1.10;;;17.80;59.70;;;16.46;64.97;95909.59;4998549;28;20032;-67
2022/06/21 05:02:27;;;;;;;2.75;1.02;;;17.70;59.00;;;16.47;64.50;95913.84;4993871;28;20113;-67
2022/06/21 05:05:02;;;;;;;2.03;1.30;;;17.70;58.70;;;16.49;63.74;95910.97;5012490;28;20033;-67
2022/06/21 05:07:32;;;;;;;1.70;0.80;;;17.80;58.80;;;16.51;63.81;95904.38;5012201;28;20029;-67
2022/06/21 05:09:58;;;;;;;2.30;1.05;;;17.80;57.80;;;16.56;63.67;95905.56;5012480;28;20026;-67
2022/06/21 05:12:44;;;;;;;2.10;1.00;;;17.80;57.10;;;16.61;61.52;95898.50;5011717;28;20041;-67
2022/06/21 05:15:20;;;;;;;4.20;0.98;;;18.00;56.90;;;16.58;61.50;95904.28;5032182;28;20064;-67
2022/06/21 05:17:49;;;;;;;5.68;1.30;;;17.90;56.30;;;16.62;62.92;95912.59;5032239;28;20033;-68
2022/06/21 05:20:18;;;;;;;4.23;1.50;;;18.00;57.40;;;16.70;62.77;95920.22;4980517;28;20485;-66
2022/06/21 05:22:48;;;;;;;1.77;1.10;;;18.10;57.40;;;16.76;63.17;95909.50;4999487;28;20044;-66
2022/06/21 05:25:25;;;;;;;3.28;1.15;;;18.20;58.10;;;16.83;63.18;95896.09;5031843;28;20037;-66
2022/06/21 05:28:18;;;;;;;2.22;0.90;;;18.20;58.20;;;16.91;63.21;95902.91;5037412;28;20453;-65
2022/06/21 05:30:54;;;;;;;2.05;1.08;;;18.40;57.80;;;16.99;62.96;95905.22;5021869;28;20053;-66
2022/06/21 05:33:32;;;;;;;3.13;1.35;;;18.40;57.60;;;17.01;61.98;95898.63;5017359;28;20113;-66
2022/06/21 05:35:58;;;;;;;4.40;1.30;;;18.40;56.90;;;17.09;62.84;95900.09;5031984;28;20061;-66
2022/06/21 05:38:27;;;;;;;1.63;1.10;;;18.60;57.50;;;17.15;62.17;95899.97;5031892;28;20031;-67
2022/06/21 05:41:29;;;;;;;3.95;1.25;;;18.60;56.30;;;17.20;61.99;95901.09;5031018;28;20037;-68
2022/06/21 05:44:01;;;;;;;3.05;1.20;;;18.60;56.90;;;17.26;62.25;95897.53;5041040;28;20619;-67
2022/06/21 05:46:29;;;;;;;2.58;1.25;;;18.70;56.70;;;17.26;61.71;95903.66;4992559;28;20409;-67
2022/06/21 05:48:55;;;;;;;4.03;1.27;;;18.60;55.60;;;17.27;61.83;95907.13;4992010;28;20035;-67
2022/06/21 05:51:28;;;;;;;2.72;1.15;;;18.80;56.60;;;17.31;61.47;95908.25;5008260;28;20113;-67
2022/06/21 05:54:10;;;;;;;2.50;1.25;;;18.80;57.00;;;17.37;61.36;95902.78;4972825;28;20494;-67
2022/06/21 05:56:37;;;;;;;4.43;1.30;;;18.80;56.60;;;17.38;62.26;95898.28;4995684;28;20061;-67
2022/06/21 05:59:08;;;;;;;3.47;0.98;;;18.80;57.00;;;17.46;61.53;95905.91;4994549;28;20041;-67
2022/06/21 06:01:51;;;;;;;4.75;1.00;;;19.00;56.10;;;17.54;62.28;95904.72;4998641;28;20072;-66
2022/06/21 06:04:42;;;;;;;2.78;1.30;;;19.10;57.00;;;17.62;61.13;95910.44;5014205;28;20121;-66
2022/06/21 06:07:14;;;;;;;2.13;1.10;;;19.10;56.00;;;17.69;61.28;95910.34;4999303;28;20501;-66
2022/06/21 06:09:43;;;;;;;3.78;1.40;;;19.20;55.30;;;17.71;60.10;95903.75;4979424;28;20030;-66
2022/06/21 06:12:39;;;;;;;2.60;1.02;;;19.30;53.50;;;17.80;58.29;95906.00;4978938;28;20038;-66
2022/06/21 06:15:08;;;;;;;3.20;1.27;;;19.40;52.70;;;17.87;59.09;95906.66;5021379;28;20065;-66
2022/06/21 06:17:49;;;;;;;2.95;1.20;;;19.50;53.10;;;17.96;58.43;95905.25;5010716;28;20493;-66
2022/06/21 06:20:25;;;;;;;3.58;1.25;;;19.60;52.90;;;18.07;56.99;95901.69;4964059;28;20083;-67
2022/06/21 06:23:08;;;;;;;2.60;1.13;;;19.70;51.20;;;18.11;56.65;95900.19;5010481;28;20034;-66
2022/06/21 06:25:48;;;;;;;4.47;1.50;;;19.70;50.50;;;18.19;56.28;95906.97;5010568;28;20108;-66
2022/06/21 06:28:31;;;;;;;4.22;1.67;;;19.80;50.80;;;18.25;56.66;95893.50;4980058;28;20038;-66
2022/06/21 06:31:19;;;;;;;2.75;1.30;;;20.00;50.90;;;18.35;56.86;95893.66;4995581;28;20078;-66
2022/06/21 06:33:49;;;;;;;3.53;1.42;;;20.10;51.30;;;18.47;56.90;95906.06;5011168;28;20036;-66
2022/06/21 06:36:21;;;;;;;3.22;1.13;;;20.40;51.20;;;18.63;57.00;95907.97;4995471;28;20034;-67
2022/06/21 06:38:47;;;;;;;3.53;1.23;;;20.60;51.70;;;18.77;58.23;95911.06;5007821;28;20029;-67
2022/06/21 06:41:32;;;;;;;3.08;1.20;;;20.70;50.90;;;18.89;56.77;95896.59;5030377;28;20111;-66
2022/06/21 06:44:04;;;;;;;3.88;1.52;;;20.90;50.00;;;19.04;56.25;95892.53;5030714;28;20476;-67
2022/06/21 06:46:30;;;;;;;3.50;1.63;;;21.10;48.70;;;19.18;57.11;95891.09;5030245;28;20116;-67
2022/06/21 06:49:14;;;;;;;4.30;1.92;;;21.20;49.50;;;19.30;54.39;95896.31;5048832;28;20144;-67
2022/06/21 06:51:44;;;;;;;4.25;1.48;;;21.50;47.20;;;19.41;54.92;95890.84;4994983;28;20034;-66
2022/06/21 06:54:19;;;;;;;6.65;1.55;;;21.70;46.80;;;19.58;53.78;95890.81;5003057;28;20041;-67
2022/06/21 06:57:23;;;;;;;3.70;1.60;;;22.00;45.80;;;19.82;53.68;95884.13;5010645;28;20524;-66
2022/06/21 06:59:48;;;;;;;7.28;1.80;;;22.10;46.10;;;19.96;54.26;95895.19;5003621;28;20095;-66
2022/06/21 07:02:30;;;;;;;7.57;2.10;;;22.10;46.10;;;20.07;53.51;95898.75;4994538;28;20038;-66
2022/06/21 07:05:37;;;;;;;3.80;1.80;;;22.10;46.50;;;20.26;51.32;95908.00;4994937;28;20132;-67
2022/06/21 07:08:35;;;;;;;5.10;1.40;;;22.30;45.80;;;20.37;52.64;95903.56;4997899;28;20531;-66
2022/06/21 07:11:06;;;;;;;3.63;1.30;;;22.40;47.00;;;20.45;52.86;95901.25;4977145;28;20061;-67
2022/06/21 07:13:32;;;;;;;5.45;1.23;;;22.60;46.40;;;20.54;52.29;95893.56;4985044;28;20465;-67
2022/06/21 07:16:07;;;;;;;3.45;1.60;;;22.60;46.00;;;20.63;51.54;95897.38;4997402;28;20029;-67
2022/06/21 07:18:40;;;;;;;4.00;1.50;;;22.80;45.50;;;20.72;51.51;95901.19;5014239;28;20112;-67
2022/06/21 07:21:06;;;;;;;3.35;1.25;;;22.80;45.10;;;20.80;52.61;95886.50;4998606;28;20036;-67
2022/06/21 07:23:31;;;;;;;5.35;1.45;;;23.00;44.50;;;20.88;50.49;95893.25;5012615;28;20037;-67
2022/06/21 07:26:17;;;;;;;3.40;1.20;;;23.10;43.60;;;20.97;48.15;95889.81;4997089;28;20045;-67
2022/06/21 07:29:04;;;;;;;2.92;1.23;;;23.20;41.90;;;21.07;47.70;95883.75;5029702;28;20112;-67
2022/06/21 07:31:41;;;;;;;3.25;1.35;;;23.50;41.60;;;21.14;47.08;95888.84;4999205;28;20234;-67
2022/06/21 07:34:12;;;;;;;3.47;1.15;;;23.50;40.90;;;21.20;48.38;95891.28;4993414;28;20117;-67
2022/06/21 07:37:20;;;;;;;2.47;1.35;;;23.40;40.70;;;21.31;48.01;95884.94;4993685;28;20366;-67
2022/06/21 07:39:53;;;;;;;4.95;1.60;;;23.50;42.20;;;21.37;48.09;95880.41;5008916;28;20034;-67
2022/06/21 07:42:31;;;;;;;4.82;1.30;;;23.70;41.90;;;21.47;48.60;95880.44;5011834;28;20033;-67
2022/06/21 07:45:18;;;;;;;3.72;1.55;;;23.80;42.60;;;21.59;46.41;95880.22;5012842;28;20095;-67
2022/06/21 07:48:04;;;;;;;3.47;1.27;;;24.00;40.30;;;21.82;46.99;95892.31;5054695;28;20053;-67
2022/06/21 07:50:48;;;;;;;3.38;1.35;;;24.20;41.30;;;21.97;47.42;95893.16;5030851;28;20095;-68
2022/06/21 07:53:33;;;;;;;3.95;1.25;;;24.40;41.30;;;22.02;45.60;95892.34;5012021;28;20597;-67
2022/06/21 07:56:07;;;;;;;2.88;1.02;;;24.30;39.70;;;22.12;47.03;95896.94;4993778;28;20037;-67
2022/06/21 07:58:53;;;;;;;5.65;1.38;;;24.40;40.90;;;22.20;44.65;95889.19;5005873;28;20066;-67
2022/06/21 08:07:39;;;;;;;4.70;1.58;;;24.80;39.70;;;22.50;46.53;95871.50;4996508;28;20111;-67
2022/06/21 08:10:13;;;;;;;2.42;1.30;;;25.20;38.50;;;22.62;45.81;95870.13;4993075;28;20172;-67
2022/06/21 08:12:39;;;;;;;5.70;1.30;;;25.50;39.50;;;22.81;46.57;95866.88;4978656;28;20231;-68
2022/06/21 08:15:05;;;;;;;2.70;1.40;;;25.90;39.80;;;23.03;46.17;95870.06;5025828;28;20136;-67
2022/06/21 08:17:42;;;;;;;6.15;1.20;;;26.10;38.30;;;23.16;44.70;95869.50;5028076;28;20049;-67
2022/06/21 08:20:28;;;;;;;2.65;1.05;;;26.30;37.20;;;23.32;44.02;95864.09;5029243;28;20567;-67
2022/06/21 08:23:34;;;;;;;5.32;1.25;;;26.30;37.40;;;23.41;43.56;95878.53;5011921;28;20501;-67
2022/06/21 08:26:12;;;;;;;3.90;1.25;;;26.30;37.10;;;23.60;44.69;95879.53;5040048;28;20044;-69
2022/06/21 08:29:15;;;;;;;5.07;1.27;;;26.60;38.00;;;23.74;43.99;95879.72;5013470;28;20041;-67
2022/06/21 08:31:45;;;;;;;4.07;1.45;;;26.80;37.10;;;23.92;44.06;95880.97;5017320;28;20095;-67
2022/06/21 08:34:35;;;;;;;6.22;1.73;;;27.10;36.10;;;24.19;43.38;95880.50;4996826;28;20567;-68
2022/06/21 08:37:35;;;;;;;3.92;1.20;;;27.60;36.90;;;24.41;42.78;95888.97;5028458;28;20583;-68
2022/06/21 08:40:40;;;;;;;3.35;1.40;;;28.10;34.90;;;24.77;42.99;95891.34;4982876;28;20045;-68
2022/06/21 08:43:27;;;;;;;7.53;1.73;;;28.40;35.10;;;25.02;43.78;95889.22;5010619;28;20037;-68
2022/06/21 08:46:13;;;;;;;5.13;1.40;;;28.40;36.60;;;25.21;42.81;95885.78;4991731;28;22485;-68
2022/06/21 08:49:06;;;;;;;6.38;1.48;;;28.40;36.00;;;25.32;42.30;95879.19;5012183;28;20038;-68
2022/06/21 08:52:01;;;;;;;3.67;1.50;;;28.40;35.20;;;25.62;41.31;95875.34;5018874;28;20136;-67
2022/06/21 08:55:09;;;;;;;2.40;1.42;;;29.10;33.80;;;25.98;40.16;95889.13;5017320;28;20113;-69
2022/06/21 08:57:55;;;;;;;4.80;1.60;;;29.30;33.70;;;26.25;39.78;95897.38;5020378;28;20060;-67
2022/06/21 09:00:34;;;;;;;3.67;1.38;;;29.30;33.60;;;26.39;40.73;95893.94;5017598;28;20398;-67
2022/06/21 09:03:08;;;;;;;3.47;1.25;;;29.30;34.60;;;26.48;38.37;95892.16;5001089;28;20394;-68
2022/06/21 09:05:58;;;;;;;3.60;1.42;;;29.30;31.90;;;26.61;39.24;95899.50;5015367;28;20049;-68
2022/06/21 09:08:45;;;;;;;3.22;1.52;;;29.60;33.10;;;26.91;39.10;95906.25;5050244;28;20413;-68
2022/06/21 09:11:40;;;;;;;6.38;1.50;;;30.30;33.00;;;27.10;37.75;95906.22;5032097;28;20048;-68
2022/06/21 09:14:29;;;;;;;4.38;1.90;;;29.80;31.70;;;27.12;38.92;95902.13;5032222;28;20544;-67
2022/06/21 09:17:19;;;;;;;2.67;1.50;;;29.80;33.30;;;27.20;38.98;95903.34;4997514;28;20044;-67
2022/06/21 09:20:32;;;;;;;5.50;1.80;;;30.00;33.40;;;27.55;39.66;95903.72;5057985;28;20056;-67
2022/06/21 09:23:45;;;;;;;3.95;1.50;;;30.80;34.00;;;27.94;39.27;95895.91;5039356;28;20033;-67
2022/06/21 09:26:24;;;;;;;2.90;1.50;;;31.30;33.60;;;28.12;37.93;95891.44;5001307;28;20025;-67
2022/06/21 09:28:59;;;;;;;2.42;1.20;;;31.30;31.20;;;28.23;38.02;95881.16;4999974;28;20116;-67
2022/06/21 09:31:38;;;;;;;3.33;1.60;;;31.30;32.00;;;28.44;38.60;95876.09;5028990;28;20485;-68
2022/06/21 09:35:05;;;;;;;3.50;1.50;;;31.60;32.00;;;28.57;37.15;95867.94;5031986;28;20038;-68
2022/06/21 09:37:58;;;;;;;4.25;1.60;;;31.50;31.50;;;28.52;37.16;95868.06;5031525;28;20410;-67
2022/06/21 09:40:30;;;;;;;4.70;1.65;;;30.90;32.90;;;28.51;37.11;95869.13;5032592;28;20389;-68
2022/06/21 09:43:23;;;;;;;2.50;1.38;;;31.00;32.60;;;28.38;36.88;95861.91;5048226;28;20500;-67
2022/06/21 09:46:05;;;;;;;3.70;1.85;;;30.50;33.00;;;28.16;38.20;95876.19;5011375;28;20112;-68
2022/06/21 09:48:56;;;;;;;5.90;1.92;;;30.20;34.40;;;27.89;37.42;95868.97;4982054;28;20460;-68
2022/06/21 09:51:37;;;;;;;4.10;1.80;;;29.80;33.70;;;27.81;38.59;95871.59;4995547;28;20060;-68
2022/06/21 09:54:49;;;;;;;5.32;2.40;;;30.00;34.50;;;27.65;38.26;95855.72;4996958;28;20382;-68
2022/06/21 09:57:41;;;;;;;4.25;1.90;;;29.60;34.30;;;27.42;39.13;95867.53;5000473;28;20050;-68
2022/06/21 10:00:26;;;;;;;2.50;1.70;;;29.40;35.90;;;27.37;39.53;95859.50;5022684;28;20109;-68
2022/06/21 10:03:06;;;;;;;6.05;2.00;;;29.60;36.20;;;27.37;40.12;95852.19;5005039;28;20473;-68
2022/06/21 10:05:37;;;;;;;4.70;1.90;;;29.60;35.70;;;27.28;40.21;95845.91;5032010;28;20545;-67
2022/06/21 10:08:14;;;;;;;5.90;1.77;;;29.20;36.50;;;27.09;39.71;95837.13;5031225;28;20044;-67
2022/06/21 10:10:55;;;;;;;3.88;1.90;;;29.10;36.40;;;27.02;39.28;95840.22;5031296;28;20033;-67
2022/06/21 10:13:35;;;;;;;6.43;2.05;;;29.30;35.60;;;27.05;40.11;95846.94;5010832;28;20038;-67
2022/06/21 10:16:39;;;;;;;;;;;29.30;36.40;;;27.27;40.73;95843.53;5013280;28;20138;-67
2022/06/21 10:19:31;;;;;;;6.63;2.17;;;30.10;36.50;;;27.81;39.21;95853.47;5011240;28;20469;-67
2022/06/21 10:22:26;;;;;;;4.45;1.75;;;31.30;33.60;;;28.48;38.79;95839.19;5031888;28;20081;-67
2022/06/21 10:24:59;;;;;;;5.55;1.73;;;32.20;33.00;;;28.81;38.03;95818.06;5011514;28;20042;-68
2022/06/21 10:28:21;;;;;;;5.03;2.72;;;32.10;32.00;;;29.16;38.42;95825.22;5020824;28;20108;-68
2022/06/21 10:31:18;;;;;;;6.22;2.00;;;32.70;32.10;;;29.82;37.44;95817.88;5023530;28;20105;-68
2022/06/21 10:34:30;;;;;;;5.32;1.88;;;33.60;31.20;;;30.40;36.61;95821.22;4991384;28;20034;-68
2022/06/21 10:37:48;;;;;;;6.43;1.85;;;34.10;30.40;;;30.79;35.58;95822.91;5030649;28;20117;-68
2022/06/21 10:40:31;;;;;;;7.03;2.08;;;34.20;29.40;;;30.69;35.47;95804.25;5031796;28;20030;-67
2022/06/21 10:43:20;;;;;;;3.97;2.00;;;33.50;30.50;;;30.44;36.18;95795.81;5025585;28;20037;-67
2022/06/21 10:45:54;;;;;;;3.10;1.95;;;32.80;31.80;;;30.28;36.19;95805.59;4992306;28;20382;-67
2022/06/21 10:48:33;;;;;;;3.58;2.20;;;32.50;31.90;;;30.10;35.00;95817.56;4975676;28;20026;-68
2022/06/21 10:51:35;;;;;;;5.50;1.90;;;32.20;31.20;;;30.10;35.69;95809.44;4975882;28;20038;-68
2022/06/21 10:54:35;;;;;;;4.22;2.00;;;32.60;31.40;;;30.34;37.15;95807.03;4984954;28;20042;-67
2022/06/21 10:57:28;;;;;;;6.18;1.98;;;33.00;32.80;;;30.53;35.07;95803.13;5016911;28;20038;-68
2022/06/21 11:02:54;;;;;;;7.50;1.90;;;33.70;30.40;;;31.17;35.80;95803.91;4991330;28;20104;-68
2022/06/21 11:05:49;;;;;;;5.80;1.92;;;34.10;29.60;;;31.47;34.82;95804.72;4991790;28;20041;-67
2022/06/21 11:08:51;;;;;;;4.28;1.80;;;34.30;29.60;;;32.01;34.68;95796.66;4991114;28;20063;-67
2022/06/21 11:11:47;;;;;;;3.67;1.80;;;34.90;29.70;;;32.53;33.77;95796.97;5006492;28;20038;-67
2022/06/21 11:14:40;;;;;;;3.65;1.73;;;35.30;29.50;;;32.98;32.76;95774.34;5010648;28;20066;-68
2022/06/21 11:17:37;;;;;;;5.53;1.75;;;36.00;27.90;;;33.32;32.06;95775.84;5009366;28;20493;-68
2022/06/21 11:20:28;;;;;;;6.22;2.10;;;35.90;28.00;;;33.34;31.76;95776.31;5016481;28;20033;-68
2022/06/21 11:23:22;;;;;;;5.32;1.98;;;35.20;28.10;;;33.39;32.15;95773.34;5014776;28;20026;-67
2022/06/21 11:25:53;;;;;;;3.60;2.17;;;35.40;28.80;;;33.40;32.38;95777.66;5056336;28;20061;-68